createdAt,value
2023-04-09T00:01:28.158Z,8.20
2023-04-09T00:03:58.345Z,9.25
2023-04-09T00:06:28.927Z,9.20
2023-04-09T00:08:58.924Z,9.80
2023-04-09T00:11:29.406Z,9.73
2023-04-09T00:14:00.140Z,9.00
2023-04-09T00:16:30.694Z,8.50
2023-04-09T00:19:00.765Z,9.45
2023-04-09T00:21:31.192Z,11.30
2023-04-09T00:24:01.160Z,11.10
2023-04-09T00:26:32.412Z,12.20
2023-04-09T00:29:02.660Z,11.32
2023-04-09T00:31:34.110Z,10.68
2023-04-09T00:34:04.146Z,10.82
2023-04-09T00:36:34.585Z,11.75
2023-04-09T00:39:04.604Z,12.65
2023-04-09T00:41:35.137Z,12.27
2023-04-09T00:44:05.117Z,12.30
2023-04-09T00:46:35.599Z,12.30
2023-04-09T00:49:05.645Z,12.77
2023-04-09T00:51:37.921Z,11.25
2023-04-09T00:54:08.705Z,10.70
2023-04-09T00:56:40.319Z,11.05
2023-04-09T00:59:10.419Z,10.95
2023-04-09T01:01:41.001Z,9.32
2023-04-09T01:04:11.457Z,10.20
2023-04-09T01:06:57.574Z,10.27
2023-04-09T01:09:35.400Z,12.43
2023-04-09T01:12:24.371Z,12.70
2023-04-09T01:15:09.358Z,14.38
2023-04-09T01:17:52.394Z,13.73
2023-04-09T01:20:42.633Z,11.32
2023-04-09T01:23:18.109Z,13.43
2023-04-09T01:26:18.446Z,14.52
2023-04-09T01:28:58.656Z,14.10
2023-04-09T01:31:38.197Z,14.63
2023-04-09T01:34:11.392Z,13.80
2023-04-09T01:36:42.990Z,14.35
2023-04-09T01:39:13.582Z,14.95
2023-04-09T01:41:44.465Z,15.57
2023-04-09T01:44:15.881Z,15.77
2023-04-09T01:46:48.152Z,15.48
2023-04-09T01:51:50.566Z,16.80
2023-04-09T01:54:21.009Z,18.83
2023-04-09T01:56:51.072Z,16.90
2023-04-09T01:59:21.602Z,15.90
2023-04-09T02:02:02.932Z,15.00
2023-04-09T02:04:42.169Z,17.08
2023-04-09T02:07:47.728Z,21.85
2023-04-09T02:10:22.030Z,17.42
2023-04-09T02:12:55.909Z,13.20
2023-04-09T02:15:27.254Z,14.88
2023-04-09T02:17:57.360Z,16.25
2023-04-09T02:20:27.942Z,17.98
2023-04-09T02:22:57.912Z,16.95
2023-04-09T02:25:28.901Z,18.00
2023-04-09T02:27:59.385Z,19.40
2023-04-09T02:30:29.681Z,17.08
2023-04-09T02:33:00.790Z,18.02
2023-04-09T02:35:31.233Z,17.67
2023-04-09T02:38:01.941Z,16.80
2023-04-09T02:40:32.331Z,16.65
2023-04-09T02:43:02.747Z,14.80
2023-04-09T02:45:33.111Z,16.38
2023-04-09T02:48:03.903Z,16.92
2023-04-09T02:50:37.631Z,18.35
2023-04-09T02:53:08.349Z,15.93
2023-04-09T02:55:38.413Z,17.85
2023-04-09T02:58:08.809Z,17.98
2023-04-09T03:00:38.866Z,19.85
2023-04-09T03:03:09.789Z,19.95
2023-04-09T03:05:40.150Z,20.92
2023-04-09T03:08:10.570Z,18.15
2023-04-09T03:10:40.633Z,17.50
2023-04-09T03:13:11.114Z,15.32
2023-04-09T03:15:41.487Z,16.92
2023-04-09T03:18:11.988Z,14.63
2023-04-09T03:20:41.897Z,16.83
2023-04-09T03:23:14.724Z,17.50
2023-04-09T03:25:50.002Z,21.75
2023-04-09T03:28:21.802Z,27.02
2023-04-09T03:30:55.494Z,24.48
2023-04-09T03:33:29.256Z,22.02
2023-04-09T03:36:01.551Z,22.30
2023-04-09T03:38:52.376Z,20.85
2023-04-09T03:41:48.329Z,24.33
2023-04-09T03:44:20.722Z,25.70
2023-04-09T03:47:09.654Z,22.33
2023-04-09T03:49:41.310Z,17.77
2023-04-09T03:52:20.079Z,17.38
2023-04-09T03:54:58.818Z,18.15
2023-04-09T03:57:30.229Z,18.67
2023-04-09T04:00:01.168Z,18.88
2023-04-09T04:02:39.133Z,18.83
2023-04-09T04:05:12.752Z,17.48
2023-04-09T04:07:48.463Z,16.52
2023-04-09T04:10:27.480Z,14.65
2023-04-09T04:12:57.605Z,12.45
2023-04-09T04:15:44.203Z,12.70
2023-04-09T04:18:16.571Z,14.52
2023-04-09T04:20:50.671Z,15.75
2023-04-09T04:23:20.694Z,15.60
2023-04-09T04:26:13.678Z,15.10
2023-04-09T04:28:44.446Z,14.60
2023-04-09T04:31:22.585Z,14.80
2023-04-09T04:33:52.901Z,15.82
2023-04-09T04:36:23.309Z,16.88
2023-04-09T04:38:54.986Z,17.70
2023-04-09T04:41:32.685Z,18.05
2023-04-09T04:44:25.231Z,17.25
2023-04-09T04:47:04.924Z,19.40
2023-04-09T04:49:35.068Z,20.20
2023-04-09T04:52:08.917Z,20.73
2023-04-09T04:54:41.763Z,10.32
2023-04-09T04:57:14.153Z,13.68
2023-04-09T04:59:44.483Z,10.95
2023-04-09T05:02:16.739Z,13.35
2023-04-09T05:05:12.362Z,14.63
2023-04-09T05:07:50.511Z,14.98
2023-04-09T05:10:21.760Z,12.45
2023-04-09T05:12:52.407Z,12.73
2023-04-09T05:15:32.659Z,13.57
2023-04-09T05:18:03.087Z,13.57
2023-04-09T05:20:33.296Z,12.30
2023-04-09T05:23:13.721Z,12.35
2023-04-09T05:25:49.684Z,11.82
2023-04-09T05:28:29.545Z,12.43
2023-04-09T05:31:14.177Z,13.48
2023-04-09T05:33:52.509Z,14.75
2023-04-09T05:36:27.392Z,16.95
2023-04-09T05:38:57.967Z,13.15
2023-04-09T05:41:27.989Z,16.27
2023-04-09T05:44:20.374Z,17.67
2023-04-09T05:46:51.970Z,18.48
2023-04-09T05:49:27.032Z,13.68
2023-04-09T05:51:59.359Z,13.82
2023-04-09T05:54:33.577Z,19.15
2023-04-09T05:57:03.952Z,17.45
2023-04-09T05:59:37.669Z,16.75
2023-04-09T06:02:08.057Z,15.45
2023-04-09T06:04:38.703Z,14.63
2023-04-09T06:07:08.776Z,11.80
2023-04-09T06:09:39.514Z,10.52
2023-04-09T06:12:10.846Z,9.82
2023-04-09T06:14:41.596Z,10.77
2023-04-09T06:17:11.758Z,10.43
2023-04-09T06:19:42.267Z,11.02
2023-04-09T06:22:12.537Z,10.15
2023-04-09T06:24:42.893Z,10.88
2023-04-09T06:27:13.231Z,12.75
2023-04-09T06:29:43.610Z,11.57
2023-04-09T06:32:13.433Z,10.07
2023-04-09T06:34:43.831Z,8.60
2023-04-09T06:37:13.926Z,8.88
2023-04-09T06:39:53.857Z,8.38
2023-04-09T06:42:30.415Z,9.20
2023-04-09T06:45:10.128Z,8.93
2023-04-09T06:47:40.219Z,8.45
2023-04-09T06:50:10.892Z,10.60
2023-04-09T06:52:41.048Z,9.20
2023-04-09T06:55:12.599Z,11.77
2023-04-09T06:57:42.749Z,11.48
2023-04-09T07:00:13.616Z,11.68
2023-04-09T07:02:43.971Z,18.02
2023-04-09T07:05:14.591Z,7.97
2023-04-09T07:07:44.650Z,7.63
2023-04-09T07:10:15.094Z,6.80
2023-04-09T07:12:45.122Z,9.40
2023-04-09T07:15:15.629Z,9.25
2023-04-09T07:17:45.850Z,10.00
2023-04-09T07:20:16.740Z,8.15
2023-04-09T07:22:47.138Z,9.77
2023-04-09T07:25:18.175Z,10.32
2023-04-09T07:27:48.320Z,10.80
2023-04-09T07:30:18.765Z,9.55
2023-04-09T07:32:48.663Z,10.10
2023-04-09T07:35:19.883Z,7.78
2023-04-09T07:37:49.967Z,7.50
2023-04-09T07:40:21.099Z,7.28
2023-04-09T07:42:51.915Z,7.97
2023-04-09T07:45:22.390Z,8.57
2023-04-09T07:47:52.814Z,8.43
2023-04-09T07:50:23.527Z,8.45
2023-04-09T07:52:54.381Z,8.80
2023-04-09T07:55:24.412Z,8.77
2023-04-09T07:57:54.851Z,9.23
2023-04-09T08:00:25.026Z,10.32
2023-04-09T08:02:55.727Z,8.38
2023-04-09T08:05:25.892Z,8.10
2023-04-09T08:07:57.003Z,8.00
2023-04-09T08:10:28.079Z,8.45
2023-04-09T08:12:58.587Z,8.32
2023-04-09T08:15:28.544Z,8.95
2023-04-09T08:17:59.371Z,8.40
2023-04-09T08:20:30.509Z,8.95
2023-04-09T08:23:00.997Z,11.10
2023-04-09T08:25:31.050Z,11.18
2023-04-09T08:28:01.626Z,9.40
2023-04-09T08:30:31.787Z,6.93
2023-04-09T08:33:05.123Z,8.07
2023-04-09T08:35:35.412Z,10.35
2023-04-09T08:38:05.941Z,10.80
2023-04-09T08:40:39.117Z,10.48
2023-04-09T08:43:11.806Z,11.48
2023-04-09T08:45:43.175Z,10.77
2023-04-09T08:48:15.870Z,9.10
2023-04-09T08:50:47.762Z,11.13
2023-04-09T08:53:19.998Z,11.88
2023-04-09T08:55:50.387Z,9.70
2023-04-09T08:58:20.836Z,16.60
2023-04-09T09:00:50.835Z,16.98
2023-04-09T09:03:21.421Z,12.98
2023-04-09T09:05:51.576Z,9.82
2023-04-09T09:08:27.151Z,12.32
2023-04-09T09:10:57.192Z,12.65
2023-04-09T09:13:28.906Z,13.90
2023-04-09T09:16:19.550Z,9.48
2023-04-09T09:18:50.889Z,8.38
2023-04-09T09:21:22.099Z,10.35
2023-04-09T09:23:52.325Z,13.93
2023-04-09T09:26:28.636Z,13.30
2023-04-09T09:29:02.393Z,13.02
2023-04-09T09:31:33.037Z,8.82
2023-04-09T09:34:10.768Z,9.13
2023-04-09T09:36:41.452Z,18.15
2023-04-09T09:39:13.284Z,8.60
2023-04-09T09:41:44.779Z,18.77
2023-04-09T09:44:32.251Z,10.15
2023-04-09T09:47:05.020Z,9.27
2023-04-09T09:49:35.088Z,10.85
2023-04-09T09:52:10.366Z,10.73
2023-04-09T09:54:43.708Z,11.32
2023-04-09T09:57:15.254Z,11.43
2023-04-09T09:59:53.416Z,10.43
2023-04-09T10:02:28.022Z,9.48
2023-04-09T10:05:02.692Z,7.93
2023-04-09T10:07:33.172Z,10.90
2023-04-09T10:10:04.813Z,9.68
2023-04-09T10:12:35.858Z,9.10
2023-04-09T10:15:07.482Z,7.65
2023-04-09T10:17:37.980Z,9.02
2023-04-09T10:20:14.758Z,8.77
2023-04-09T10:22:49.168Z,7.85
2023-04-09T10:25:19.862Z,6.75
2023-04-09T10:28:02.309Z,6.43
2023-04-09T10:30:39.006Z,5.40
2023-04-09T10:33:17.155Z,5.78
2023-04-09T10:35:50.407Z,5.72
2023-04-09T10:38:44.661Z,4.88
2023-04-09T10:41:18.395Z,5.38
2023-04-09T10:43:49.610Z,3.92
2023-04-09T10:46:31.949Z,4.22
2023-04-09T10:49:15.242Z,4.05
2023-04-09T10:52:00.209Z,4.55
2023-04-09T10:54:36.523Z,5.13
2023-04-09T10:57:10.177Z,3.95
2023-04-09T10:59:46.549Z,4.13
2023-04-09T11:02:40.117Z,3.40
2023-04-09T11:05:35.070Z,3.25
2023-04-09T11:08:07.233Z,3.33
2023-04-09T11:10:38.942Z,3.50
2023-04-09T11:13:15.587Z,3.42
2023-04-09T11:15:47.069Z,3.08
2023-04-09T11:18:28.658Z,3.75
2023-04-09T11:21:04.370Z,3.40
2023-04-09T11:23:35.095Z,3.90
2023-04-09T11:26:05.126Z,3.45
2023-04-09T11:28:36.814Z,3.58
2023-04-09T11:31:08.160Z,3.22
2023-04-09T11:33:38.671Z,3.40
2023-04-09T11:36:08.864Z,2.97
2023-04-09T11:38:40.263Z,3.15
2023-04-09T11:41:14.089Z,3.15
2023-04-09T11:43:44.699Z,3.40
2023-04-09T11:46:14.922Z,3.10
2023-04-09T11:48:45.604Z,3.72
2023-04-09T11:51:15.749Z,4.20
2023-04-09T11:53:46.159Z,3.90
2023-04-09T11:56:16.215Z,3.83
2023-04-09T11:58:50.359Z,4.35
2023-04-09T12:01:23.320Z,3.78
2023-04-09T12:03:57.678Z,3.63
2023-04-09T12:06:29.097Z,3.45
2023-04-09T12:09:00.988Z,4.00
2023-04-09T12:11:32.845Z,3.28
2023-04-09T12:14:06.868Z,3.85
2023-04-09T12:16:37.525Z,3.95
2023-04-09T12:19:12.537Z,3.78
2023-04-09T12:21:50.273Z,4.05
2023-04-09T12:24:22.800Z,3.17
2023-04-09T12:29:23.204Z,4.13
2023-04-09T12:31:55.011Z,3.15
2023-04-09T12:34:25.048Z,3.17
2023-04-09T12:36:55.476Z,3.55
2023-04-09T12:39:25.490Z,3.20
2023-04-09T12:41:55.840Z,3.15
2023-04-09T12:44:25.886Z,2.80
2023-04-09T12:46:56.489Z,2.92
2023-04-09T12:49:26.845Z,2.92
2023-04-09T12:51:57.479Z,3.05
2023-04-09T12:54:27.847Z,3.42
2023-04-09T12:56:58.386Z,2.90
2023-04-09T12:59:28.935Z,2.63
2023-04-09T13:01:59.573Z,3.25
2023-04-09T13:04:29.819Z,2.72
2023-04-09T13:07:00.324Z,2.65
2023-04-09T13:09:30.388Z,3.20
2023-04-09T13:12:00.865Z,2.47
2023-04-09T13:14:30.894Z,2.58
2023-04-09T13:17:01.476Z,2.53
2023-04-09T13:19:31.577Z,2.50
2023-04-09T13:22:02.145Z,2.28
2023-04-09T13:24:32.488Z,2.60
2023-04-09T13:27:03.243Z,2.35
2023-04-09T13:29:33.494Z,2.20
2023-04-09T13:32:08.101Z,2.47
2023-04-09T13:34:38.329Z,1.70
2023-04-09T13:37:09.168Z,2.20
2023-04-09T13:39:39.171Z,2.25
2023-04-09T13:42:13.730Z,2.33
2023-04-09T13:44:46.254Z,2.92
2023-04-09T13:47:18.390Z,2.10
2023-04-09T13:49:48.502Z,2.17
2023-04-09T13:52:19.297Z,2.38
2023-04-09T13:54:50.648Z,2.10
2023-04-09T13:57:21.347Z,2.67
2023-04-09T13:59:51.688Z,2.38
2023-04-09T14:02:22.438Z,2.35
2023-04-09T14:04:52.602Z,2.17
2023-04-09T14:07:22.975Z,2.17
2023-04-09T14:09:53.075Z,1.65
2023-04-09T14:12:24.195Z,1.88
2023-04-09T14:14:55.229Z,1.95
2023-04-09T14:17:25.690Z,1.80
2023-04-09T14:19:55.700Z,1.70
2023-04-09T14:22:26.721Z,1.80
2023-04-09T14:24:56.782Z,1.85
2023-04-09T14:27:27.592Z,1.65
2023-04-09T14:29:57.642Z,1.85
2023-04-09T14:32:28.084Z,1.95
2023-04-09T14:34:58.157Z,1.98
2023-04-09T14:37:28.912Z,2.15
2023-04-09T14:39:59.129Z,1.80
2023-04-09T14:42:29.581Z,1.98
2023-04-09T14:44:59.633Z,1.58
2023-04-09T14:47:30.080Z,2.17
2023-04-09T14:50:00.299Z,2.38
2023-04-09T14:52:31.666Z,1.85
2023-04-09T14:55:01.697Z,1.70
2023-04-09T14:57:32.511Z,1.67
2023-04-09T15:00:02.648Z,1.70
2023-04-09T15:02:33.222Z,2.17
2023-04-09T15:05:04.856Z,2.30
2023-04-09T15:07:35.845Z,1.63
2023-04-09T15:10:06.103Z,1.95
2023-04-09T15:12:36.598Z,1.92
2023-04-09T15:15:11.020Z,1.88
2023-04-09T15:17:41.621Z,2.20
2023-04-09T15:20:14.877Z,1.88
2023-04-09T15:22:45.343Z,2.05
2023-04-09T15:25:15.477Z,2.10
2023-04-09T15:27:47.712Z,2.30
2023-04-09T15:30:17.743Z,1.60
2023-04-09T15:32:48.142Z,2.22
2023-04-09T15:35:25.071Z,1.98
2023-04-09T15:37:55.535Z,2.60
2023-04-09T15:40:25.638Z,2.60
2023-04-09T15:42:56.434Z,2.25
2023-04-09T15:45:27.643Z,1.98
2023-04-09T15:50:27.830Z,3.13
2023-04-09T15:52:58.380Z,2.35
2023-04-09T15:55:28.559Z,2.67
2023-04-09T15:57:59.092Z,2.65
2023-04-09T16:00:29.718Z,3.13
2023-04-09T16:03:00.196Z,2.65
2023-04-09T16:05:30.261Z,1.80
2023-04-09T16:08:00.921Z,2.42
2023-04-09T16:10:31.004Z,2.50
2023-04-09T16:13:01.417Z,3.53
2023-04-09T16:15:32.215Z,2.90
2023-04-09T16:18:02.722Z,2.47
2023-04-09T16:20:32.830Z,2.50
2023-04-09T16:23:03.271Z,3.22
2023-04-09T16:25:33.405Z,2.22
2023-04-09T16:28:04.193Z,2.30
2023-04-09T16:30:34.245Z,1.83
2023-04-09T16:33:04.652Z,2.22
2023-04-09T16:35:34.720Z,2.30
2023-04-09T16:38:06.207Z,2.33
2023-04-09T16:40:36.544Z,2.20
2023-04-09T16:43:06.922Z,2.05
2023-04-09T16:45:37.077Z,2.38
2023-04-09T16:48:13.017Z,2.20
2023-04-09T16:50:43.989Z,2.58
2023-04-09T16:53:14.479Z,1.60
2023-04-09T16:55:46.031Z,1.40
2023-04-09T16:58:16.153Z,1.33
2023-04-09T17:00:48.230Z,1.10
2023-04-09T17:03:19.334Z,1.58
2023-04-09T17:05:50.313Z,1.05
2023-04-09T17:08:25.242Z,2.10
2023-04-09T17:11:03.387Z,1.70
2023-04-09T17:13:38.680Z,1.33
2023-04-09T17:16:10.542Z,1.80
2023-04-09T17:18:40.591Z,1.63
2023-04-09T17:21:11.203Z,1.40
2023-04-09T17:23:42.113Z,1.60
2023-04-09T17:26:12.557Z,2.38
2023-04-09T17:28:43.389Z,1.65
2023-04-09T17:31:17.628Z,1.75
2023-04-09T17:33:50.402Z,1.98
2023-04-09T17:36:22.513Z,1.63
2023-04-09T17:41:25.182Z,1.50
2023-04-09T17:43:56.238Z,1.58
2023-04-09T17:46:26.847Z,1.33
2023-04-09T17:48:56.863Z,1.73
2023-04-09T17:51:28.130Z,2.10
2023-04-09T17:53:58.118Z,1.48
2023-04-09T17:56:28.632Z,1.67
2023-04-09T17:58:58.437Z,1.50
2023-04-09T18:01:29.117Z,1.83
2023-04-09T18:03:59.325Z,1.92
2023-04-09T18:06:30.375Z,1.45
2023-04-09T18:09:00.367Z,1.77
2023-04-09T18:11:30.793Z,1.38
2023-04-09T18:14:00.749Z,1.02
2023-04-09T18:16:31.190Z,1.38
2023-04-09T18:19:01.185Z,1.00
2023-04-09T18:21:32.701Z,1.55
2023-04-09T18:24:02.790Z,1.65
2023-04-09T18:26:34.960Z,1.50
2023-04-09T18:29:05.479Z,1.50
2023-04-09T18:31:36.107Z,2.00
2023-04-09T18:34:06.094Z,1.77
2023-04-09T18:36:36.715Z,1.38
2023-04-09T18:39:06.678Z,1.45
2023-04-09T18:41:36.548Z,1.40
2023-04-09T18:44:08.172Z,1.67
2023-04-09T18:46:38.407Z,1.73
2023-04-09T18:49:08.883Z,1.80
2023-04-09T18:51:38.912Z,1.60
2023-04-09T18:54:09.332Z,1.48
2023-04-09T18:56:39.384Z,1.30
2023-04-09T18:59:09.828Z,1.30
2023-04-09T19:01:39.965Z,2.00
2023-04-09T19:04:10.751Z,1.40
2023-04-09T19:06:40.935Z,1.45
2023-04-09T19:09:11.408Z,2.05
2023-04-09T19:11:41.393Z,1.30
2023-04-09T19:14:11.788Z,1.45
2023-04-09T19:16:42.024Z,1.63
2023-04-09T19:19:13.049Z,1.73
2023-04-09T19:21:43.065Z,1.88
2023-04-09T19:24:13.520Z,1.95
2023-04-09T19:26:43.504Z,1.77
2023-04-09T19:29:13.880Z,1.48
2023-04-09T19:31:43.759Z,1.73
2023-04-09T19:34:14.607Z,1.50
2023-04-09T19:36:44.665Z,1.60
2023-04-09T19:39:15.177Z,1.55
2023-04-09T19:41:45.536Z,1.33
2023-04-09T19:44:16.973Z,1.55
2023-04-09T19:46:47.217Z,1.85
2023-04-09T19:49:17.841Z,1.60
2023-04-09T19:51:47.918Z,1.50
2023-04-09T19:54:17.733Z,1.52
2023-04-09T19:56:48.575Z,1.80
2023-04-09T19:59:18.588Z,1.50
2023-04-09T20:01:49.788Z,1.63
2023-04-09T20:04:19.871Z,1.42
2023-04-09T20:06:52.719Z,2.05
2023-04-09T20:09:26.924Z,1.70
2023-04-09T20:11:59.483Z,2.08
2023-04-09T20:14:30.127Z,2.75
2023-04-09T20:17:01.853Z,2.65
2023-04-09T20:19:31.825Z,3.00
2023-04-09T20:22:02.374Z,2.92
2023-04-09T20:24:33.430Z,3.78
2023-04-09T20:27:04.973Z,3.33
2023-04-09T20:29:34.972Z,3.20
2023-04-09T20:32:05.417Z,3.42
2023-04-09T20:34:35.888Z,3.60
2023-04-09T20:37:06.809Z,3.35
2023-04-09T20:39:37.379Z,3.67
2023-04-09T20:42:07.589Z,3.42
2023-04-09T20:44:38.046Z,3.78
2023-04-09T20:47:08.468Z,3.50
2023-04-09T20:49:38.867Z,3.85
2023-04-09T20:52:09.466Z,3.75
2023-04-09T20:54:40.520Z,4.13
2023-04-09T20:57:14.123Z,3.92
2023-04-09T20:59:45.836Z,3.70
2023-04-09T21:02:16.071Z,4.15
2023-04-09T21:04:46.616Z,3.70
2023-04-09T21:07:16.878Z,4.20
2023-04-09T21:09:47.251Z,3.90
2023-04-09T21:12:17.273Z,4.18
2023-04-09T21:14:48.965Z,4.50
2023-04-09T21:17:19.023Z,4.32
2023-04-09T21:19:50.455Z,4.35
2023-04-09T21:22:20.562Z,4.40
2023-04-09T21:24:54.598Z,4.40
2023-04-09T21:27:24.928Z,4.43
2023-04-09T21:29:55.714Z,4.88
2023-04-09T21:32:26.231Z,4.53
2023-04-09T21:34:56.721Z,4.40
2023-04-09T21:37:27.877Z,4.40
2023-04-09T21:39:58.277Z,5.20
2023-04-09T21:42:28.756Z,5.18
2023-04-09T21:45:02.594Z,4.65
2023-04-09T21:47:33.281Z,5.13
2023-04-09T21:50:05.096Z,5.18
2023-04-09T21:52:35.384Z,5.32
2023-04-09T21:55:05.954Z,4.75
2023-04-09T21:57:35.956Z,5.47
2023-04-09T22:00:06.712Z,4.93
2023-04-09T22:02:36.873Z,5.55
2023-04-09T22:05:07.843Z,5.65
2023-04-09T22:07:38.498Z,5.30
2023-04-09T22:10:09.912Z,6.07
2023-04-09T22:12:39.920Z,5.63
2023-04-09T22:15:10.994Z,5.95
2023-04-09T22:17:41.669Z,5.80
2023-04-09T22:20:12.381Z,6.20
2023-04-09T22:22:43.566Z,5.60
2023-04-09T22:25:14.681Z,6.25
2023-04-09T22:27:45.046Z,6.05
2023-04-09T22:30:16.092Z,5.85
2023-04-09T22:32:46.091Z,6.40
2023-04-09T22:35:19.762Z,7.38
2023-04-09T22:37:49.852Z,7.00
2023-04-09T22:40:20.505Z,7.25
2023-04-09T22:42:50.733Z,6.40
2023-04-09T22:45:21.491Z,6.78
2023-04-09T22:47:51.852Z,6.93
2023-04-09T22:50:22.400Z,6.38
2023-04-09T22:52:52.773Z,7.53
2023-04-09T22:55:24.564Z,6.60
2023-04-09T22:57:56.229Z,6.90
2023-04-09T23:00:26.753Z,6.10
2023-04-09T23:02:57.049Z,6.78
2023-04-09T23:05:27.622Z,6.85
2023-04-09T23:07:57.647Z,10.40
2023-04-09T23:10:28.077Z,7.25
2023-04-09T23:12:58.306Z,6.35
2023-04-09T23:15:29.984Z,4.90
2023-04-09T23:18:01.069Z,5.25
2023-04-09T23:20:31.597Z,4.35
2023-04-09T23:23:01.757Z,4.40
2023-04-09T23:25:32.310Z,4.50
2023-04-09T23:28:02.365Z,4.30
2023-04-09T23:30:33.366Z,4.47
2023-04-09T23:33:03.420Z,3.80
2023-04-09T23:35:34.260Z,3.92
2023-04-09T23:38:04.266Z,4.28
2023-04-09T23:40:34.724Z,4.50
2023-04-09T23:43:04.755Z,5.45
2023-04-09T23:45:35.155Z,6.05
2023-04-09T23:48:07.182Z,5.85
2023-04-09T23:50:41.421Z,6.63
2023-04-09T23:53:12.095Z,6.50
2023-04-09T23:55:43.609Z,6.65
2023-04-09T23:58:14.095Z,7.10
